Time,TemperatureF,DewpointF,PressureIn,WindDirection,WindDirectionDegrees,WindSpeedMPH,WindSpeedGustMPH,Humidity,HourlyPrecipIn,Conditions,Clouds,dailyrainin,SoftwareType,DateUTC
2013-03-30 00:04:00,54.0,52.0,30.19,SSW,205,0.0,0.0,93,0.00,,CLR,0.00,VWS V13.01,2013-03-30 05:04:00,
2013-03-30 00:09:00,54.0,52.0,30.19,SSW,205,0.0,0.0,93,0.00,,CLR,0.00,VWS V13.01,2013-03-30 05:09:00,
2013-03-30 00:14:00,54.1,52.4,30.19,SSW,205,0.0,0.0,94,0.00,,CLR,0.00,VWS V13.01,2013-03-30 05:14:00,
2013-03-30 00:19:00,54.5,52.8,30.18,SSW,205,0.0,0.0,94,0.00,,CLR,0.00,VWS V13.01,2013-03-30 05:19:00,
2013-03-30 00:24:00,55.0,53.6,30.19,SSW,205,0.0,0.0,95,0.00,,CLR,0.00,VWS V13.01,2013-03-30 05:24:00,
2013-03-30 00:29:00,55.2,53.8,30.19,SSW,205,0.0,1.0,95,0.00,,CLR,0.00,VWS V13.01,2013-03-30 05:29:00,
2013-03-30 00:34:00,55.4,53.7,30.19,SSW,205,0.0,0.0,94,0.00,,CLR,0.00,VWS V13.01,2013-03-30 05:34:00,
2013-03-30 00:39:00,55.6,54.2,30.18,SSW,205,0.0,0.0,95,0.00,,CLR,0.00,VWS V13.01,2013-03-30 05:39:00,
2013-03-30 00:45:00,55.6,53.9,30.18,SSW,205,0.0,0.0,94,0.00,,CLR,0.00,VWS V13.01,2013-03-30 05:45:00,
2013-03-30 00:50:00,55.5,53.8,30.18,SSW,205,0.0,1.0,94,0.00,,CLR,0.00,VWS V13.01,2013-03-30 05:50:00,
2013-03-30 00:55:00,55.2,53.2,30.18,SSW,205,0.0,1.0,93,0.00,,CLR,0.00,VWS V13.01,2013-03-30 05:55:00,
2013-03-30 01:00:00,55.0,53.0,30.18,SSW,205,0.0,1.0,93,0.00,,CLR,0.00,VWS V13.01,2013-03-30 06:00:00,
2013-03-30 01:05:00,54.9,53.2,30.18,SSW,205,0.0,0.0,94,0.00,,CLR,0.00,VWS V13.01,2013-03-30 06:05:00,
2013-03-30 01:10:00,54.9,53.2,30.17,SSW,205,0.0,0.0,94,0.00,,CLR,0.00,VWS V13.01,2013-03-30 06:10:00,
2013-03-30 01:15:00,54.6,52.9,30.17,SSW,205,0.0,0.0,94,0.00,,CLR,0.00,VWS V13.01,2013-03-30 06:15:00,
2013-03-30 01:20:00,54.6,52.9,30.17,SSW,205,0.0,0.0,94,0.00,,CLR,0.00,VWS V13.01,2013-03-30 06:20:00,
2013-03-30 01:25:00,54.7,53.0,30.18,SSW,205,0.0,0.0,94,0.00,,CLR,0.00,VWS V13.01,2013-03-30 06:25:00,
2013-03-30 01:30:00,54.9,53.2,30.18,SSW,205,0.0,0.0,94,0.00,,CLR,0.00,VWS V13.01,2013-03-30 06:30:00,
2013-03-30 01:35:00,54.9,53.2,30.17,SSW,205,0.0,0.0,94,0.00,,CLR,0.00,VWS V13.01,2013-03-30 06:35:00,
2013-03-30 01:40:00,54.9,53.2,30.17,SSW,205,0.0,0.0,94,0.00,,CLR,0.00,VWS V13.01,2013-03-30 06:40:00,
2013-03-30 01:46:00,55.0,53.6,30.17,SSW,205,0.0,0.0,95,0.00,,CLR,0.00,VWS V13.01,2013-03-30 06:46:00,
2013-03-30 01:51:00,55.0,53.6,30.17,SSW,205,0.0,0.0,95,0.00,,CLR,0.00,VWS V13.01,2013-03-30 06:51:00,
2013-03-30 01:56:00,54.9,53.5,30.17,SSW,205,0.0,0.0,95,0.00,,CLR,0.00,VWS V13.01,2013-03-30 06:56:00,
2013-03-30 02:01:00,54.8,53.1,30.17,SSW,205,0.0,0.0,94,0.00,,CLR,0.00,VWS V13.01,2013-03-30 07:01:00,
2013-03-30 02:06:00,54.8,53.4,30.16,SSW,205,0.0,0.0,95,0.00,,CLR,0.00,VWS V13.01,2013-03-30 07:06:00,
2013-03-30 02:11:00,54.8,53.4,30.16,SSW,205,0.0,0.0,95,0.00,,CLR,0.00,VWS V13.01,2013-03-30 07:11:00,
2013-03-30 02:16:00,54.7,53.3,30.16,SSW,205,0.0,0.0,95,0.00,,CLR,0.00,VWS V13.01,2013-03-30 07:16:00,
2013-03-30 02:22:00,54.8,53.4,30.16,SSW,205,0.0,0.0,95,0.00,,CLR,0.00,VWS V13.01,2013-03-30 07:22:00,
2013-03-30 02:27:00,54.9,53.5,30.16,SSW,205,0.0,0.0,95,0.00,,CLR,0.00,VWS V13.01,2013-03-30 07:27:00,
2013-03-30 02:32:00,54.9,53.5,30.16,SSW,205,0.0,0.0,95,0.00,,CLR,0.00,VWS V13.01,2013-03-30 07:32:00,
2013-03-30 02:37:00,55.0,53.6,30.16,SSW,205,0.0,0.0,95,0.00,,CLR,0.00,VWS V13.01,2013-03-30 07:37:00,
2013-03-30 02:42:00,55.1,53.7,30.16,SSW,205,0.0,0.0,95,0.00,,CLR,0.00,VWS V13.01,2013-03-30 07:42:00,
2013-03-30 02:47:00,55.0,53.6,30.15,SSW,205,0.0,0.0,95,0.00,,CLR,0.00,VWS V13.01,2013-03-30 07:47:00,
2013-03-30 02:52:00,54.8,53.4,30.15,SSW,205,0.0,0.0,95,0.00,,CLR,0.00,VWS V13.01,2013-03-30 07:52:00,
2013-03-30 02:57:00,54.5,53.1,30.15,SSW,205,0.0,0.0,95,0.00,,CLR,0.00,VWS V13.01,2013-03-30 07:57:00,
2013-03-30 03:02:00,54.1,52.4,30.15,SSW,205,0.0,0.0,94,0.00,,,0.00,VWS V13.01,2013-03-30 08:02:00,
2013-03-30 03:07:00,53.7,52.0,30.15,SSW,205,0.0,0.0,94,0.00,,,0.00,VWS V13.01,2013-03-30 08:07:00,
2013-03-30 03:12:00,53.4,51.7,30.15,SSW,205,0.0,0.0,94,0.00,,,0.00,VWS V13.01,2013-03-30 08:12:00,
2013-03-30 03:17:00,53.2,51.5,30.15,SSW,205,0.0,0.0,94,0.00,,,0.00,VWS V13.01,2013-03-30 08:17:00,
2013-03-30 03:23:00,53.1,51.4,30.15,SSW,205,0.0,0.0,94,0.00,,,0.00,VWS V13.01,2013-03-30 08:23:00,
2013-03-30 03:28:00,53.1,51.7,30.15,SSW,205,0.0,0.0,95,0.00,,,0.00,VWS V13.01,2013-03-30 08:28:00,
2013-03-30 03:33:00,53.0,51.3,30.15,SSW,205,0.0,0.0,94,0.00,,,0.00,VWS V13.01,2013-03-30 08:33:00,
2013-03-30 03:38:00,52.8,51.1,30.15,SSW,205,0.0,0.0,94,0.00,,,0.00,VWS V13.01,2013-03-30 08:38:00,
2013-03-30 03:43:00,52.7,51.0,30.15,SSW,205,0.0,0.0,94,0.00,,,0.00,VWS V13.01,2013-03-30 08:43:00,
2013-03-30 03:48:00,52.5,51.1,30.15,SSW,205,0.0,0.0,95,0.00,,,0.00,VWS V13.01,2013-03-30 08:48:00,
2013-03-30 04:15:00,52.1,50.7,30.14,SSW,205,0.0,0.0,95,0.00,,,0.00,VWS V13.01,2013-03-30 09:15:00,
2013-03-30 04:20:00,51.9,50.5,30.14,SSW,205,0.0,0.0,95,0.00,,,0.00,VWS V13.01,2013-03-30 09:20:00,
2013-03-30 04:25:00,51.8,50.4,30.14,SSW,205,0.0,0.0,95,0.00,,,0.00,VWS V13.01,2013-03-30 09:25:00,
2013-03-30 04:30:00,51.7,50.0,30.14,SSW,205,0.0,0.0,94,0.00,,,0.00,VWS V13.01,2013-03-30 09:30:00,
2013-03-30 04:34:00,51.5,49.8,30.14,SSW,205,0.0,0.0,94,0.00,,CLR,0.00,VWS V13.01,2013-03-30 09:34:00,
2013-03-30 04:39:00,51.4,49.7,30.14,SSW,205,0.0,0.0,94,0.00,,CLR,0.00,VWS V13.01,2013-03-30 09:39:00,
2013-03-30 04:44:00,51.3,49.9,30.14,SSW,205,0.0,0.0,95,0.00,,CLR,0.00,VWS V13.01,2013-03-30 09:44:00,
2013-03-30 04:49:00,51.3,49.9,30.14,SSW,205,0.0,0.0,95,0.00,,CLR,0.00,VWS V13.01,2013-03-30 09:49:00,
2013-03-30 04:54:00,51.2,49.8,30.14,SSW,205,0.0,0.0,95,0.00,,CLR,0.00,VWS V13.01,2013-03-30 09:54:00,
2013-03-30 04:59:00,51.0,49.6,30.14,SSW,205,0.0,0.0,95,0.00,,CLR,0.00,VWS V13.01,2013-03-30 09:59:00,
2013-03-30 05:04:00,50.9,49.5,30.14,SSW,205,0.0,0.0,95,0.00,,CLR,0.00,VWS V13.01,2013-03-30 10:04:00,
2013-03-30 05:09:00,50.8,49.4,30.14,SSW,205,0.0,0.0,95,0.00,,CLR,0.00,VWS V13.01,2013-03-30 10:09:00,
2013-03-30 05:14:00,50.8,49.4,30.15,SSW,205,0.0,0.0,95,0.00,,CLR,0.00,VWS V13.01,2013-03-30 10:14:00,
2013-03-30 05:19:00,50.6,49.2,30.14,SSW,205,0.0,0.0,95,0.00,,CLR,0.00,VWS V13.01,2013-03-30 10:19:00,
2013-03-30 05:24:00,50.6,49.2,30.14,SSW,205,0.0,0.0,95,0.00,,CLR,0.00,VWS V13.01,2013-03-30 10:24:00,
2013-03-30 05:29:00,50.5,49.1,30.14,SSW,205,0.0,0.0,95,0.00,,CLR,0.00,VWS V13.01,2013-03-30 10:29:00,
2013-03-30 05:34:00,50.4,49.0,30.14,SSW,205,0.0,0.0,95,0.00,,CLR,0.00,VWS V13.01,2013-03-30 10:34:00,
2013-03-30 05:39:00,50.3,48.9,30.14,SSW,205,0.0,0.0,95,0.00,,CLR,0.00,VWS V13.01,2013-03-30 10:39:00,
2013-03-30 05:44:00,50.1,48.7,30.14,SSW,205,0.0,0.0,95,0.00,,CLR,0.00,VWS V13.01,2013-03-30 10:44:00,
2013-03-30 05:49:00,50.1,48.7,30.14,SSW,205,0.0,0.0,95,0.00,,CLR,0.00,VWS V13.01,2013-03-30 10:49:00,
2013-03-30 05:54:00,50.1,48.7,30.14,SSW,205,0.0,0.0,95,0.00,,CLR,0.00,VWS V13.01,2013-03-30 10:54:00,
2013-03-30 05:59:00,49.9,48.5,30.14,SSW,205,0.0,0.0,95,0.00,,CLR,0.00,VWS V13.01,2013-03-30 10:59:00,
2013-03-30 06:05:00,49.8,48.4,30.15,SSW,205,0.0,0.0,95,0.00,,FEW200,0.00,VWS V13.01,2013-03-30 11:05:00,
2013-03-30 06:10:00,49.7,48.3,30.15,SSW,205,0.0,0.0,95,0.00,,FEW200,0.00,VWS V13.01,2013-03-30 11:10:00,
2013-03-30 06:15:00,49.6,48.2,30.15,SSW,205,0.0,0.0,95,0.00,,FEW200,0.00,VWS V13.01,2013-03-30 11:15:00,
2013-03-30 06:20:00,49.6,48.2,30.15,SSW,205,0.0,0.0,95,0.00,,FEW200,0.00,VWS V13.01,2013-03-30 11:20:00,
2013-03-30 06:25:00,49.5,48.1,30.15,SSW,205,0.0,0.0,95,0.00,,FEW200,0.00,VWS V13.01,2013-03-30 11:25:00,
2013-03-30 06:30:00,49.5,48.1,30.15,SSW,205,0.0,0.0,95,0.00,,FEW200,0.00,VWS V13.01,2013-03-30 11:30:00,
2013-03-30 06:35:00,49.4,48.0,30.15,SSW,205,0.0,0.0,95,0.00,,FEW200,0.00,VWS V13.01,2013-03-30 11:35:00,
2013-03-30 06:40:00,49.4,48.0,30.15,SSW,205,0.0,0.0,95,0.00,,FEW200,0.00,VWS V13.01,2013-03-30 11:40:00,
2013-03-30 06:45:00,49.4,48.0,30.15,SSW,205,0.0,0.0,95,0.00,,FEW200,0.00,VWS V13.01,2013-03-30 11:45:00,
2013-03-30 06:50:00,49.3,47.9,30.15,SSW,205,0.0,0.0,95,0.00,,FEW200,0.00,VWS V13.01,2013-03-30 11:50:00,
2013-03-30 06:55:00,49.2,47.8,30.15,SSW,205,0.0,0.0,95,0.00,,FEW200,0.00,VWS V13.01,2013-03-30 11:55:00,
2013-03-30 07:00:00,49.2,47.8,30.15,SSW,205,0.0,0.0,95,0.00,,FEW200,0.00,VWS V13.01,2013-03-30 12:00:00,
2013-03-30 07:05:00,49.2,47.8,30.15,SSW,205,0.0,0.0,95,0.00,,,0.00,VWS V13.01,2013-03-30 12:05:00,
2013-03-30 07:10:00,49.3,47.9,30.15,SSW,205,0.0,0.0,95,0.00,,,0.00,VWS V13.01,2013-03-30 12:10:00,
2013-03-30 07:16:00,49.4,48.0,30.16,SSW,205,0.0,0.0,95,0.00,,,0.00,VWS V13.01,2013-03-30 12:16:00,
2013-03-30 07:21:00,49.5,48.4,30.16,SSW,205,0.0,0.0,96,0.00,,,0.00,VWS V13.01,2013-03-30 12:21:00,
2013-03-30 07:26:00,49.7,48.6,30.16,SSW,205,0.0,0.0,96,0.00,,,0.00,VWS V13.01,2013-03-30 12:26:00,
2013-03-30 07:31:00,49.8,48.7,30.16,SSW,205,0.0,0.0,96,0.00,,,0.00,VWS V13.01,2013-03-30 12:31:00,
2013-03-30 07:36:00,50.0,48.9,30.16,SSW,205,0.0,0.0,96,0.00,,,0.00,VWS V13.01,2013-03-30 12:36:00,
2013-03-30 07:41:00,50.3,49.2,30.16,SSW,205,0.0,0.0,96,0.00,,,0.00,VWS V13.01,2013-03-30 12:41:00,
2013-03-30 07:46:00,50.7,49.6,30.17,SSW,205,0.0,0.0,96,0.00,,,0.00,VWS V13.01,2013-03-30 12:46:00,
2013-03-30 07:52:00,51.2,50.1,30.17,SSW,205,0.0,0.0,96,0.00,,,0.00,VWS V13.01,2013-03-30 12:52:00,
2013-03-30 07:57:00,52.0,50.9,30.17,SSW,205,0.0,0.0,96,0.00,,,0.00,VWS V13.01,2013-03-30 12:57:00,
2013-03-30 08:02:00,52.9,51.8,30.17,SSW,205,0.0,0.0,96,0.00,,,0.00,VWS V13.01,2013-03-30 13:02:00,
2013-03-30 08:07:00,54.7,53.6,30.17,SSW,205,0.0,1.0,96,0.00,,BKN200,0.00,VWS V13.01,2013-03-30 13:07:00,
2013-03-30 08:12:00,55.8,55.0,30.17,SSW,205,0.0,1.0,97,0.00,,BKN200,0.00,VWS V13.01,2013-03-30 13:12:00,
2013-03-30 08:17:00,56.7,55.6,30.17,SSW,205,0.0,1.0,96,0.00,,BKN200,0.00,VWS V13.01,2013-03-30 13:17:00,
2013-03-30 08:22:00,57.5,56.7,30.17,SSW,205,0.0,1.0,97,0.00,,BKN200,0.00,VWS V13.01,2013-03-30 13:22:00,
2013-03-30 08:27:00,58.2,57.4,30.17,SSW,205,0.0,3.0,97,0.00,,BKN200,0.00,VWS V13.01,2013-03-30 13:27:00,
2013-03-30 08:32:00,59.0,57.9,30.17,SSW,205,2.0,5.0,96,0.00,,BKN200,0.00,VWS V13.01,2013-03-30 13:32:00,
2013-03-30 08:37:00,59.6,57.9,30.17,SSW,205,1.0,5.0,94,0.00,,BKN200,0.00,VWS V13.01,2013-03-30 13:37:00,
2013-03-30 08:42:00,60.5,57.9,30.17,SSW,207,3.0,5.0,91,0.00,,BKN200,0.00,VWS V13.01,2013-03-30 13:42:00,
2013-03-30 08:53:00,62.1,58.2,30.16,SSW,206,1.0,5.0,87,0.00,,BKN200,0.00,VWS V13.01,2013-03-30 13:53:00,
2013-03-30 08:58:00,62.8,57.9,30.17,SSW,206,2.0,5.0,84,0.00,,BKN200,0.00,VWS V13.01,2013-03-30 13:58:00,
2013-03-30 09:03:00,63.5,58.2,30.17,SSW,206,0.0,1.0,83,0.00,,SCT200,0.00,VWS V13.01,2013-03-30 14:03:00,
2013-03-30 09:08:00,64.2,58.3,30.17,SSW,211,2.0,6.0,81,0.00,,SCT200,0.00,VWS V13.01,2013-03-30 14:08:00,
2013-03-30 09:13:00,64.8,57.8,30.17,SE,146,2.0,6.0,78,0.00,,SCT200,0.00,VWS V13.01,2013-03-30 14:13:00,
2013-03-30 09:18:00,65.4,57.3,30.16,South,182,1.0,4.0,75,0.00,,SCT200,0.00,VWS V13.01,2013-03-30 14:18:00,
2013-03-30 09:23:00,65.9,57.0,30.16,SSW,198,2.0,5.0,73,0.00,,SCT200,0.00,VWS V13.01,2013-03-30 14:23:00,
2013-03-30 09:28:00,66.2,56.9,30.17,SSE,163,4.0,6.0,72,0.00,,SCT200,0.00,VWS V13.01,2013-03-30 14:28:00,
2013-03-30 09:33:00,66.6,57.3,30.16,SSW,194,3.0,4.0,72,0.00,,SCT200,0.00,VWS V13.01,2013-03-30 14:33:00,
2013-03-30 09:38:00,67.0,57.3,30.16,SSW,209,6.0,8.0,71,0.00,,SCT200,0.00,VWS V13.01,2013-03-30 14:38:00,
2013-03-30 09:43:00,67.3,56.8,30.16,SSE,148,2.0,8.0,69,0.00,,SCT200,0.00,VWS V13.01,2013-03-30 14:43:00,
2013-03-30 09:48:00,67.6,56.7,30.16,SSW,196,2.0,6.0,68,0.00,,SCT200,0.00,VWS V13.01,2013-03-30 14:48:00,
2013-03-30 09:53:00,68.1,57.2,30.16,SSW,200,1.0,6.0,68,0.00,,SCT200,0.00,VWS V13.01,2013-03-30 14:53:00,
2013-03-30 09:58:00,68.5,57.1,30.16,SSW,209,2.0,7.0,67,0.00,,SCT200,0.00,VWS V13.01,2013-03-30 14:58:00,
2013-03-30 10:03:00,68.8,57.0,30.16,SSW,201,0.0,5.0,66,0.00,,SCT200,0.00,VWS V13.01,2013-03-30 15:03:00,
2013-03-30 10:08:00,69.2,57.4,30.16,SSW,203,3.0,6.0,66,0.00,,SCT200,0.00,VWS V13.01,2013-03-30 15:08:00,
2013-03-30 10:14:00,69.4,57.6,30.16,SSW,202,2.0,6.0,66,0.00,,SCT200,0.00,VWS V13.01,2013-03-30 15:14:00,
2013-03-30 10:19:00,69.7,57.4,30.16,SSW,204,0.0,5.0,65,0.00,,SCT200,0.00,VWS V13.01,2013-03-30 15:19:00,
2013-03-30 10:24:00,69.7,57.0,30.16,SE,136,2.0,10.0,64,0.00,,SCT200,0.00,VWS V13.01,2013-03-30 15:24:00,
2013-03-30 10:29:00,69.9,56.3,30.16,SSW,202,5.0,10.0,62,0.00,,SCT200,0.00,VWS V13.01,2013-03-30 15:29:00,
2013-03-30 10:34:00,69.8,55.3,30.16,SE,125,2.0,9.0,60,0.00,,SCT200,0.00,VWS V13.01,2013-03-30 15:34:00,
2013-03-30 10:39:00,70.2,56.1,30.16,SSW,208,2.0,9.0,61,0.00,,SCT200,0.00,VWS V13.01,2013-03-30 15:39:00,
2013-03-30 10:44:00,70.7,56.2,30.16,SW,214,2.0,10.0,60,0.00,,SCT200,0.00,VWS V13.01,2013-03-30 15:44:00,
2013-03-30 10:49:00,70.6,56.1,30.16,SSW,210,1.0,6.0,60,0.00,,SCT200,0.00,VWS V13.01,2013-03-30 15:49:00,
2013-03-30 10:54:00,70.7,55.7,30.16,SSW,206,2.0,7.0,59,0.00,,SCT200,0.00,VWS V13.01,2013-03-30 15:54:00,
2013-03-30 10:59:00,71.0,56.0,30.16,SW,221,6.0,8.0,59,0.00,,SCT200,0.00,VWS V13.01,2013-03-30 15:59:00,
2013-03-30 11:05:00,71.3,56.2,30.16,ESE,112,3.0,6.0,59,0.00,,SCT200,0.00,VWS V13.01,2013-03-30 16:05:00,
2013-03-30 11:10:00,71.5,55.5,30.16,SSW,213,0.0,10.0,57,0.00,,SCT200,0.00,VWS V13.01,2013-03-30 16:10:00,
2013-03-30 11:15:00,71.6,56.5,30.16,SE,142,0.0,10.0,59,0.00,,SCT200,0.00,VWS V13.01,2013-03-30 16:15:00,
2013-03-30 11:20:00,71.8,54.8,30.16,SSW,209,4.0,6.0,55,0.00,,SCT200,0.00,VWS V13.01,2013-03-30 16:20:00,
2013-03-30 11:25:00,71.5,55.5,30.16,SSW,202,6.0,13.0,57,0.00,,SCT200,0.00,VWS V13.01,2013-03-30 16:25:00,
2013-03-30 11:30:00,71.2,54.7,30.15,SSW,196,0.0,13.0,56,0.00,,SCT200,0.00,VWS V13.01,2013-03-30 16:30:00,
2013-03-30 11:35:00,71.2,54.7,30.16,SSW,206,1.0,12.0,56,0.00,,SCT200,0.00,VWS V13.01,2013-03-30 16:35:00,
2013-03-30 11:40:00,71.3,54.3,30.15,SSW,195,4.0,12.0,55,0.00,,SCT200,0.00,VWS V13.01,2013-03-30 16:40:00,
2013-03-30 11:45:00,71.5,54.0,30.15,SSW,213,5.0,12.0,54,0.00,,SCT200,0.00,VWS V13.01,2013-03-30 16:45:00,
2013-03-30 11:50:00,71.8,53.8,30.16,SSW,202,5.0,7.0,53,0.00,,SCT200,0.00,VWS V13.01,2013-03-30 16:50:00,
2013-03-30 11:55:00,71.8,53.8,30.16,SE,130,10.0,11.0,53,0.00,,SCT200,0.00,VWS V13.01,2013-03-30 16:55:00,
2013-03-30 12:00:00,71.8,52.7,30.15,SSW,210,7.0,12.0,51,0.00,,SCT200,0.00,VWS V13.01,2013-03-30 17:00:00,
2013-03-30 12:05:00,71.9,53.9,30.15,SSW,212,0.0,10.0,53,0.00,,SCT047,0.00,VWS V13.01,2013-03-30 17:05:00,
2013-03-30 12:10:00,72.0,53.4,30.15,SSW,207,0.0,11.0,52,0.00,,SCT047,0.00,VWS V13.01,2013-03-30 17:10:00,
2013-03-30 12:15:00,72.3,53.7,30.15,SE,135,4.0,11.0,52,0.00,,SCT047,0.00,VWS V13.01,2013-03-30 17:15:00,
2013-03-30 12:20:00,72.6,51.8,30.15,SSW,211,9.0,13.0,48,0.00,,SCT047,0.00,VWS V13.01,2013-03-30 17:20:00,
2013-03-30 12:26:00,72.4,51.6,30.14,SSW,202,4.0,13.0,48,0.00,,SCT047,0.00,VWS V13.01,2013-03-30 17:26:00,
2013-03-30 12:31:00,72.2,52.0,30.15,SSW,194,3.0,13.0,49,0.00,,SCT047,0.00,VWS V13.01,2013-03-30 17:31:00,
2013-03-30 12:36:00,72.5,51.2,30.15,SSW,207,6.0,14.0,47,0.00,,SCT047,0.00,VWS V13.01,2013-03-30 17:36:00,
2013-03-30 12:41:00,72.5,51.2,30.14,SE,132,3.0,14.0,47,0.00,,SCT047,0.00,VWS V13.01,2013-03-30 17:41:00,
2013-03-30 12:46:00,72.7,52.5,30.14,SSW,204,0.0,14.0,49,0.00,,SCT047,0.00,VWS V13.01,2013-03-30 17:46:00,
2013-03-30 12:51:00,73.3,53.0,30.13,SSW,202,1.0,7.0,49,0.00,,SCT047,0.00,VWS V13.01,2013-03-30 17:51:00,
2013-03-30 12:56:00,73.3,54.1,30.13,SSW,200,4.0,8.0,51,0.00,,SCT047,0.00,VWS V13.01,2013-03-30 17:56:00,
2013-03-30 13:01:00,73.1,54.5,30.13,SSW,200,3.0,11.0,52,0.00,,SCT047,0.00,VWS V13.01,2013-03-30 18:01:00,
2013-03-30 13:06:00,73.1,54.5,30.13,SSW,206,6.0,9.0,52,0.00,,SCT047,0.00,VWS V13.01,2013-03-30 18:06:00,
2013-03-30 13:11:00,72.8,53.6,30.13,SSW,209,3.0,15.0,51,0.00,,SCT047,0.00,VWS V13.01,2013-03-30 18:11:00,
2013-03-30 13:17:00,72.7,54.1,30.13,SSW,211,4.0,4.0,52,0.00,,SCT047,0.00,VWS V13.01,2013-03-30 18:17:00,
2013-03-30 13:22:00,72.9,54.8,30.13,SSW,208,3.0,11.0,53,0.00,,SCT047,0.00,VWS V13.01,2013-03-30 18:22:00,
2013-03-30 13:27:00,73.1,54.5,30.12,South,182,3.0,12.0,52,0.00,,SCT047,0.00,VWS V13.01,2013-03-30 18:27:00,
2013-03-30 13:32:00,73.2,54.5,30.12,SSW,203,0.0,12.0,52,0.00,,SCT047,0.00,VWS V13.01,2013-03-30 18:32:00,
2013-03-30 13:37:00,73.2,55.6,30.12,SSE,157,1.0,13.0,54,0.00,,SCT250,0.00,VWS V13.01,2013-03-30 18:37:00,
2013-03-30 13:42:00,73.3,55.7,30.12,SSW,200,0.0,13.0,54,0.00,,SCT250,0.00,VWS V13.01,2013-03-30 18:42:00,
2013-03-30 13:53:00,73.5,54.8,30.11,SW,219,5.0,10.0,52,0.00,,SCT250,0.00,VWS V13.01,2013-03-30 18:53:00,
2013-03-30 13:58:00,73.2,55.1,30.10,SSW,210,0.0,12.0,53,0.00,,SCT250,0.00,VWS V13.01,2013-03-30 18:58:00,
2013-03-30 14:03:00,73.4,56.3,30.10,SSW,196,5.0,7.0,55,0.00,,SCT250,0.00,VWS V13.01,2013-03-30 19:03:00,
2013-03-30 14:08:00,73.8,55.6,30.10,SSW,200,9.0,15.0,53,0.00,,SCT250,0.00,VWS V13.01,2013-03-30 19:08:00,
2013-03-30 14:14:00,73.8,56.1,30.10,SSW,192,5.0,15.0,54,0.00,,SCT250,0.00,VWS V13.01,2013-03-30 19:14:00,
2013-03-30 14:19:00,73.8,55.6,30.10,SSW,197,7.0,9.0,53,0.00,,SCT250,0.00,VWS V13.01,2013-03-30 19:19:00,
2013-03-30 14:29:00,73.6,56.0,30.10,SSW,198,2.0,12.0,54,0.00,,SCT250,0.00,VWS V13.01,2013-03-30 19:29:00,
2013-03-30 14:34:00,73.7,56.0,30.09,SW,222,2.0,5.0,54,0.00,,SCT250,0.00,VWS V13.01,2013-03-30 19:34:00,
2013-03-30 14:39:00,73.7,56.0,30.09,SSW,210,4.0,12.0,54,0.00,,SCT250,0.00,VWS V13.01,2013-03-30 19:39:00,
2013-03-30 14:44:00,73.8,56.1,30.09,SW,219,4.0,12.0,54,0.00,,SCT250,0.00,VWS V13.01,2013-03-30 19:44:00,
2013-03-30 14:49:00,73.5,55.9,30.08,SW,215,0.0,9.0,54,0.00,,SCT250,0.00,VWS V13.01,2013-03-30 19:49:00,
2013-03-30 14:54:00,73.3,55.7,30.08,SW,214,0.0,9.0,54,0.00,,SCT250,0.00,VWS V13.01,2013-03-30 19:54:00,
2013-03-30 14:59:00,73.2,55.6,30.09,SW,218,15.0,15.0,54,0.00,,SCT250,0.00,VWS V13.01,2013-03-30 19:59:00,
2013-03-30 15:04:00,73.1,55.5,30.09,SSW,208,2.0,6.0,54,0.00,,CLR,0.00,VWS V13.01,2013-03-30 20:04:00,
2013-03-30 15:09:00,72.8,55.2,30.09,SSW,209,0.0,6.0,54,0.00,,CLR,0.00,VWS V13.01,2013-03-30 20:09:00,
2013-03-30 15:14:00,72.0,55.0,30.08,SSW,208,3.0,13.0,55,0.00,,CLR,0.00,VWS V13.01,2013-03-30 20:14:00,
2013-03-30 15:19:00,71.5,54.5,30.08,SSW,200,10.0,12.0,55,0.00,,CLR,0.00,VWS V13.01,2013-03-30 20:19:00,
2013-03-30 15:24:00,71.3,54.8,30.08,SW,214,3.0,12.0,56,0.00,,CLR,0.00,VWS V13.01,2013-03-30 20:24:00,
2013-03-30 15:29:00,71.2,55.2,30.09,SSW,207,2.0,12.0,57,0.00,,CLR,0.00,VWS V13.01,2013-03-30 20:29:00,
2013-03-30 15:34:00,71.3,54.3,30.08,South,190,6.0,12.0,55,0.00,,CLR,0.00,VWS V13.01,2013-03-30 20:34:00,
2013-03-30 15:39:00,71.3,54.3,30.08,SSE,157,2.0,12.0,55,0.00,,CLR,0.00,VWS V13.01,2013-03-30 20:39:00,
2013-03-30 15:44:00,71.4,54.4,30.08,SSW,209,0.0,12.0,55,0.00,,CLR,0.00,VWS V13.01,2013-03-30 20:44:00,
2013-03-30 15:50:00,71.7,55.7,30.08,SSW,206,5.0,11.0,57,0.00,,CLR,0.00,VWS V13.01,2013-03-30 20:50:00,
2013-03-30 15:55:00,71.5,55.5,30.08,SSW,194,9.0,13.0,57,0.00,,CLR,0.00,VWS V13.01,2013-03-30 20:55:00,
2013-03-30 16:00:00,71.2,55.2,30.08,SSW,210,4.0,13.0,57,0.00,,CLR,0.00,VWS V13.01,2013-03-30 21:00:00,
2013-03-30 16:05:00,70.9,54.9,30.07,SSW,201,6.0,15.0,57,0.00,,FEW150,0.00,VWS V13.01,2013-03-30 21:05:00,
2013-03-30 16:10:00,70.6,56.5,30.07,SW,215,0.0,15.0,61,0.00,,FEW150,0.00,VWS V13.01,2013-03-30 21:10:00,
2013-03-30 16:15:00,70.3,56.7,30.07,SSW,200,0.0,15.0,62,0.00,,FEW150,0.00,VWS V13.01,2013-03-30 21:15:00,
2013-03-30 16:20:00,69.8,56.7,30.06,SSW,200,0.0,9.0,63,0.00,,FEW150,0.00,VWS V13.01,2013-03-30 21:20:00,
2013-03-30 16:25:00,69.5,56.8,30.06,SSW,209,0.0,10.0,64,0.00,,FEW150,0.00,VWS V13.01,2013-03-30 21:25:00,
2013-03-30 16:30:00,69.3,57.0,30.06,SSW,209,0.0,10.0,65,0.00,,FEW150,0.00,VWS V13.01,2013-03-30 21:30:00,
2013-03-30 16:35:00,69.3,57.0,30.06,SSW,199,0.0,7.0,65,0.00,,FEW150,0.00,VWS V13.01,2013-03-30 21:35:00,
2013-03-30 16:40:00,69.2,57.4,30.06,SSW,209,2.0,10.0,66,0.00,,FEW150,0.00,VWS V13.01,2013-03-30 21:40:00,
2013-03-30 16:45:00,69.3,57.5,30.06,SW,215,0.0,10.0,66,0.00,,FEW150,0.00,VWS V13.01,2013-03-30 21:45:00,
2013-03-30 16:51:00,69.5,57.7,30.06,SE,138,5.0,9.0,66,0.00,,FEW150,0.00,VWS V13.01,2013-03-30 21:51:00,
2013-03-30 16:56:00,69.5,57.7,30.06,SSW,204,4.0,11.0,66,0.00,,FEW150,0.00,VWS V13.01,2013-03-30 21:56:00,
2013-03-30 17:01:00,69.3,57.0,30.06,SW,218,4.0,12.0,65,0.00,,FEW150,0.00,VWS V13.01,2013-03-30 22:01:00,
2013-03-30 17:06:00,69.1,57.3,30.05,South,186,2.0,9.0,66,0.00,,SCT120,0.00,VWS V13.01,2013-03-30 22:06:00,
2013-03-30 17:11:00,69.1,57.7,30.05,SSW,213,0.0,9.0,67,0.00,,SCT120,0.00,VWS V13.01,2013-03-30 22:11:00,
2013-03-30 17:16:00,69.0,57.6,30.04,SSW,196,0.0,2.0,67,0.00,,SCT120,0.00,VWS V13.01,2013-03-30 22:16:00,
2013-03-30 17:22:00,68.9,57.5,30.04,SSW,204,0.0,10.0,67,0.00,,SCT120,0.00,VWS V13.01,2013-03-30 22:22:00,
2013-03-30 17:27:00,68.8,57.4,30.03,SW,225,1.0,10.0,67,0.00,,SCT120,0.00,VWS V13.01,2013-03-30 22:27:00,
2013-03-30 17:32:00,68.7,57.3,30.03,SSW,207,0.0,6.0,67,0.00,,SCT120,0.00,VWS V13.01,2013-03-30 22:32:00,
2013-03-30 17:37:00,68.5,57.5,30.02,South,179,0.0,10.0,68,0.00,,SCT120,0.00,VWS V13.01,2013-03-30 22:37:00,
2013-03-30 17:42:00,68.4,57.8,30.02,SSW,196,0.0,10.0,69,0.00,,SCT120,0.00,VWS V13.01,2013-03-30 22:42:00,
2013-03-30 17:47:00,68.4,58.2,30.02,SSW,200,2.0,4.0,70,0.00,,SCT120,0.00,VWS V13.01,2013-03-30 22:47:00,
2013-03-30 17:52:00,68.4,58.2,30.03,SE,142,2.0,11.0,70,0.00,,SCT120,0.00,VWS V13.01,2013-03-30 22:52:00,
2013-03-30 17:57:00,68.4,58.2,30.03,SSW,207,0.0,12.0,70,0.00,,SCT120,0.00,VWS V13.01,2013-03-30 22:57:00,
2013-03-30 18:02:00,68.4,58.2,30.03,SSW,209,0.0,3.0,70,0.00,,BKN110,0.00,VWS V13.01,2013-03-30 23:02:00,
2013-03-30 18:07:00,68.4,57.8,30.03,SSW,209,0.0,12.0,69,0.00,,BKN110,0.00,VWS V13.01,2013-03-30 23:07:00,
2013-03-30 18:12:00,68.4,58.2,30.04,SSW,205,3.0,13.0,70,0.00,,BKN110,0.00,VWS V13.01,2013-03-30 23:12:00,
2013-03-30 18:17:00,68.5,58.3,30.04,SSW,207,0.0,6.0,70,0.00,,BKN110,0.00,VWS V13.01,2013-03-30 23:17:00,
2013-03-30 18:22:00,68.4,58.2,30.03,SSW,211,4.0,10.0,70,0.00,,BKN110,0.00,VWS V13.01,2013-03-30 23:22:00,
2013-03-30 18:27:00,68.3,58.2,30.03,SW,215,2.0,12.0,70,0.00,,BKN110,0.00,VWS V13.01,2013-03-30 23:27:00,
2013-03-30 18:32:00,68.0,57.9,30.03,SSW,207,0.0,7.0,70,0.00,,BKN110,0.00,VWS V13.01,2013-03-30 23:32:00,
2013-03-30 18:37:00,67.8,58.1,30.04,SSW,203,0.0,10.0,71,0.00,,BKN110,0.00,VWS V13.01,2013-03-30 23:37:00,
2013-03-30 18:42:00,67.6,58.3,30.04,SSW,209,1.0,10.0,72,0.00,,BKN110,0.00,VWS V13.01,2013-03-30 23:42:00,
2013-03-30 18:47:00,67.3,58.4,30.04,SSW,210,0.0,1.0,73,0.00,,BKN110,0.00,VWS V13.01,2013-03-30 23:47:00,
2013-03-30 18:52:00,67.1,58.2,30.05,SSW,210,1.0,3.0,73,0.00,,BKN110,0.00,VWS V13.01,2013-03-30 23:52:00,
2013-03-30 18:57:00,66.9,58.3,30.04,ENE,68,0.0,7.0,74,0.00,,BKN110,0.00,VWS V13.01,2013-03-30 23:57:00,
2013-03-30 19:03:00,66.6,58.4,30.04,SW,219,2.0,6.0,75,0.00,,FEW150,0.00,VWS V13.01,2013-03-31 00:03:00,
2013-03-30 19:08:00,66.4,58.6,30.04,SSW,200,3.0,6.0,76,0.00,,FEW150,0.00,VWS V13.01,2013-03-31 00:08:00,
2013-03-30 19:13:00,66.1,58.3,30.04,South,186,0.0,6.0,76,0.00,,FEW150,0.00,VWS V13.01,2013-03-31 00:13:00,
2013-03-30 19:18:00,65.8,58.4,30.04,South,184,0.0,2.0,77,0.00,,FEW150,0.00,VWS V13.01,2013-03-31 00:18:00,
2013-03-30 19:23:00,65.6,58.6,30.04,South,186,0.0,2.0,78,0.00,,FEW150,0.00,VWS V13.01,2013-03-31 00:23:00,
2013-03-30 19:28:00,65.3,58.6,30.03,South,186,0.0,2.0,79,0.00,,FEW150,0.00,VWS V13.01,2013-03-31 00:28:00,
2013-03-30 19:33:00,65.0,58.7,30.03,South,186,0.0,0.0,80,0.00,,FEW150,0.00,VWS V13.01,2013-03-31 00:33:00,
2013-03-30 19:38:00,64.8,58.8,30.03,South,186,0.0,2.0,81,0.00,,FEW150,0.00,VWS V13.01,2013-03-31 00:38:00,
2013-03-30 19:43:00,64.5,58.5,30.04,South,186,0.0,2.0,81,0.00,,FEW150,0.00,VWS V13.01,2013-03-31 00:43:00,
2013-03-30 19:48:00,64.3,58.7,30.04,South,186,0.0,0.0,82,0.00,,FEW150,0.00,VWS V13.01,2013-03-31 00:48:00,
2013-03-30 19:53:00,64.1,58.5,30.04,South,186,0.0,0.0,82,0.00,,FEW150,0.00,VWS V13.01,2013-03-31 00:53:00,
2013-03-30 19:58:00,63.8,58.5,30.04,South,186,0.0,0.0,83,0.00,,FEW150,0.00,VWS V13.01,2013-03-31 00:58:00,
2013-03-30 20:03:00,63.6,58.7,30.04,South,186,0.0,0.0,84,0.00,,FEW200,0.00,VWS V13.01,2013-03-31 01:03:00,
2013-03-30 20:08:00,63.3,58.4,30.03,South,186,0.0,0.0,84,0.00,,FEW200,0.00,VWS V13.01,2013-03-31 01:08:00,
2013-03-30 20:13:00,63.0,58.4,30.03,South,186,0.0,0.0,85,0.00,,FEW200,0.00,VWS V13.01,2013-03-31 01:13:00,
2013-03-30 20:18:00,62.8,58.2,30.03,South,186,0.0,0.0,85,0.00,,FEW200,0.00,VWS V13.01,2013-03-31 01:18:00,
2013-03-30 20:23:00,62.5,58.3,30.03,South,186,0.0,1.0,86,0.00,,FEW200,0.00,VWS V13.01,2013-03-31 01:23:00,
2013-03-30 20:28:00,62.3,58.1,30.03,South,186,0.0,1.0,86,0.00,,FEW200,0.00,VWS V13.01,2013-03-31 01:28:00,
2013-03-30 20:33:00,62.2,58.3,30.03,South,186,0.0,0.0,87,0.00,,FEW200,0.00,VWS V13.01,2013-03-31 01:33:00,
2013-03-30 20:38:00,61.9,58.0,30.02,South,186,0.0,0.0,87,0.00,,FEW200,0.00,VWS V13.01,2013-03-31 01:38:00,
2013-03-30 20:43:00,61.8,58.2,30.03,South,186,0.0,0.0,88,0.00,,FEW200,0.00,VWS V13.01,2013-03-31 01:43:00,
2013-03-30 20:48:00,61.7,58.4,30.03,South,186,0.0,0.0,89,0.00,,FEW200,0.00,VWS V13.01,2013-03-31 01:48:00,
2013-03-30 20:53:00,61.6,58.3,30.03,South,186,0.0,0.0,89,0.00,,FEW200,0.00,VWS V13.01,2013-03-31 01:53:00,
2013-03-30 20:58:00,61.5,58.5,30.03,South,186,0.0,0.0,90,0.00,,FEW200,0.00,VWS V13.01,2013-03-31 01:58:00,
2013-03-30 21:03:00,61.5,58.5,30.03,South,186,0.0,0.0,90,0.00,,CLR,0.00,VWS V13.01,2013-03-31 02:03:00,
2013-03-30 21:08:00,61.4,58.5,30.03,South,186,0.0,0.0,90,0.00,,CLR,0.00,VWS V13.01,2013-03-31 02:08:00,
2013-03-30 21:13:00,61.3,58.3,30.03,South,186,0.0,0.0,90,0.00,,CLR,0.00,VWS V13.01,2013-03-31 02:13:00,
2013-03-30 21:19:00,61.2,58.2,30.04,South,186,0.0,0.0,90,0.00,,CLR,0.00,VWS V13.01,2013-03-31 02:19:00,
2013-03-30 21:24:00,61.1,58.5,30.03,South,186,0.0,0.0,91,0.00,,CLR,0.00,VWS V13.01,2013-03-31 02:24:00,
2013-03-30 21:29:00,61.0,58.4,30.03,South,186,0.0,0.0,91,0.00,,CLR,0.00,VWS V13.01,2013-03-31 02:29:00,
2013-03-30 21:34:00,60.9,58.3,30.04,South,186,0.0,0.0,91,0.00,,CLR,0.00,VWS V13.01,2013-03-31 02:34:00,
2013-03-30 21:39:00,60.9,58.6,30.03,South,186,0.0,0.0,92,0.00,,CLR,0.00,VWS V13.01,2013-03-31 02:39:00,
2013-03-30 21:44:00,60.7,58.1,30.03,South,186,0.0,1.0,91,0.00,,CLR,0.00,VWS V13.01,2013-03-31 02:44:00,
2013-03-30 21:49:00,60.6,58.3,30.04,South,186,0.0,0.0,92,0.00,,CLR,0.00,VWS V13.01,2013-03-31 02:49:00,
2013-03-30 21:54:00,60.5,58.2,30.04,South,186,0.0,0.0,92,0.00,,CLR,0.00,VWS V13.01,2013-03-31 02:54:00,
2013-03-30 21:59:00,60.5,58.2,30.04,South,186,0.0,0.0,92,0.00,,CLR,0.00,VWS V13.01,2013-03-31 02:59:00,
2013-03-30 22:04:00,60.4,58.1,30.04,South,186,0.0,0.0,92,0.00,,CLR,0.00,VWS V13.01,2013-03-31 03:04:00,
2013-03-30 22:10:00,60.3,58.0,30.04,South,186,0.0,0.0,92,0.00,,CLR,0.00,VWS V13.01,2013-03-31 03:10:00,
2013-03-30 22:15:00,60.2,57.9,30.04,South,186,0.0,0.0,92,0.00,,CLR,0.00,VWS V13.01,2013-03-31 03:15:00,
2013-03-30 22:20:00,60.2,57.9,30.04,South,186,0.0,0.0,92,0.00,,CLR,0.00,VWS V13.01,2013-03-31 03:20:00,
2013-03-30 22:25:00,60.1,58.1,30.04,South,186,0.0,0.0,93,0.00,,CLR,0.00,VWS V13.01,2013-03-31 03:25:00,
2013-03-30 22:30:00,60.1,58.1,30.04,South,186,0.0,0.0,93,0.00,,CLR,0.00,VWS V13.01,2013-03-31 03:30:00,
2013-03-30 22:35:00,60.1,58.1,30.04,South,186,0.0,0.0,93,0.00,,CLR,0.00,VWS V13.01,2013-03-31 03:35:00,
2013-03-30 22:40:00,60.1,58.1,30.04,South,186,0.0,0.0,93,0.00,,CLR,0.00,VWS V13.01,2013-03-31 03:40:00,
2013-03-30 22:45:00,60.0,58.0,30.04,South,186,0.0,0.0,93,0.00,,CLR,0.00,VWS V13.01,2013-03-31 03:45:00,
2013-03-30 22:50:00,59.9,57.9,30.04,South,186,0.0,0.0,93,0.00,,CLR,0.00,VWS V13.01,2013-03-31 03:50:00,
2013-03-30 22:55:00,59.9,57.9,30.04,South,186,0.0,0.0,93,0.00,,CLR,0.00,VWS V13.01,2013-03-31 03:55:00,
2013-03-30 23:00:00,59.7,57.7,30.04,South,186,0.0,0.0,93,0.00,,CLR,0.00,VWS V13.01,2013-03-31 04:00:00,
2013-03-30 23:01:00,59.7,57.7,30.04,South,186,0.0,0.0,93,0.00,,CLR,0.00,VWS V13.01,2013-03-31 04:01:00,
2013-03-30 23:06:00,59.6,57.6,30.04,South,186,0.0,0.0,93,0.00,,CLR,0.00,VWS V13.01,2013-03-31 04:06:00,
2013-03-30 23:11:00,59.7,58.0,30.04,South,186,0.0,0.0,94,0.00,,CLR,0.00,VWS V13.01,2013-03-31 04:11:00,
2013-03-30 23:16:00,59.8,58.1,30.05,South,186,0.0,0.0,94,0.00,,CLR,0.00,VWS V13.01,2013-03-31 04:16:00,
2013-03-30 23:21:00,59.9,58.2,30.05,South,186,0.0,0.0,94,0.00,,CLR,0.00,VWS V13.01,2013-03-31 04:21:00,
2013-03-30 23:26:00,59.9,58.2,30.05,South,186,0.0,0.0,94,0.00,,CLR,0.00,VWS V13.01,2013-03-31 04:26:00,
2013-03-30 23:31:00,60.0,58.3,30.05,South,186,0.0,0.0,94,0.00,,CLR,0.00,VWS V13.01,2013-03-31 04:31:00,
2013-03-30 23:36:00,60.0,58.3,30.05,South,186,0.0,0.0,94,0.00,,CLR,0.00,VWS V13.01,2013-03-31 04:36:00,
2013-03-30 23:42:00,59.9,58.2,30.06,South,186,0.0,0.0,94,0.00,,CLR,0.00,VWS V13.01,2013-03-31 04:42:00,
2013-03-30 23:47:00,59.9,58.2,30.05,South,186,0.0,0.0,94,0.00,,CLR,0.00,VWS V13.01,2013-03-31 04:47:00,
2013-03-30 23:52:00,59.8,57.8,30.05,South,186,0.0,0.0,93,0.00,,CLR,0.00,VWS V13.01,2013-03-31 04:52:00,
2013-03-30 23:57:00,59.7,57.7,30.05,South,186,0.0,0.0,93,0.00,,CLR,0.00,VWS V13.01,2013-03-31 04:57:00,